sensor_id;sensor_type;location;lat;lon;timestamp;temperature;humidity
16066;DHT22;8137;48.952;8.970;2023-05-14T00:01:48;10.60;99.90
16066;DHT22;8137;48.952;8.970;2023-05-14T00:04:16;10.60;99.90
16066;DHT22;8137;48.952;8.970;2023-05-14T00:06:44;10.50;99.90
16066;DHT22;8137;48.952;8.970;2023-05-14T00:09:10;10.50;99.90
16066;DHT22;8137;48.952;8.970;2023-05-14T00:11:36;10.40;99.90
16066;DHT22;8137;48.952;8.970;2023-05-14T00:14:02;10.30;99.90
16066;DHT22;8137;48.952;8.970;2023-05-14T00:16:27;10.30;99.90
16066;DHT22;8137;48.952;8.970;2023-05-14T00:18:53;10.20;99.90
16066;DHT22;8137;48.952;8.970;2023-05-14T00:21:18;10.20;99.90
16066;DHT22;8137;48.952;8.970;2023-05-14T00:23:44;10.10;99.90
16066;DHT22;8137;48.952;8.970;2023-05-14T00:26:10;10.00;99.90
16066;DHT22;8137;48.952;8.970;2023-05-14T00:28:35;9.90;99.90
16066;DHT22;8137;48.952;8.970;2023-05-14T00:31:01;9.80;99.90
16066;DHT22;8137;48.952;8.970;2023-05-14T00:33:26;9.80;99.90
16066;DHT22;8137;48.952;8.970;2023-05-14T00:35:52;9.80;99.90
16066;DHT22;8137;48.952;8.970;2023-05-14T00:38:17;9.80;99.90
16066;DHT22;8137;48.952;8.970;2023-05-14T00:40:44;9.70;99.90
16066;DHT22;8137;48.952;8.970;2023-05-14T00:43:17;9.70;99.90
16066;DHT22;8137;48.952;8.970;2023-05-14T00:45:43;9.70;99.90
16066;DHT22;8137;48.952;8.970;2023-05-14T00:48:10;9.60;99.90
16066;DHT22;8137;48.952;8.970;2023-05-14T00:50:36;9.60;99.90
16066;DHT22;8137;48.952;8.970;2023-05-14T00:53:01;9.60;99.90
16066;DHT22;8137;48.952;8.970;2023-05-14T00:55:29;9.50;99.90
16066;DHT22;8137;48.952;8.970;2023-05-14T00:57:56;9.50;99.90
16066;DHT22;8137;48.952;8.970;2023-05-14T01:00:22;9.50;99.90
16066;DHT22;8137;48.952;8.970;2023-05-14T01:02:48;9.50;99.90
16066;DHT22;8137;48.952;8.970;2023-05-14T01:05:13;9.40;99.90
16066;DHT22;8137;48.952;8.970;2023-05-14T01:10:53;9.10;99.90
16066;DHT22;8137;48.952;8.970;2023-05-14T01:15:47;9.10;99.90
16066;DHT22;8137;48.952;8.970;2023-05-14T01:18:16;9.00;99.90
16066;DHT22;8137;48.952;8.970;2023-05-14T01:20:43;9.00;99.90
16066;DHT22;8137;48.952;8.970;2023-05-14T01:23:09;9.00;99.90
16066;DHT22;8137;48.952;8.970;2023-05-14T01:25:34;8.90;99.90
16066;DHT22;8137;48.952;8.970;2023-05-14T01:28:03;8.90;99.90
16066;DHT22;8137;48.952;8.970;2023-05-14T01:30:37;8.90;99.90
16066;DHT22;8137;48.952;8.970;2023-05-14T01:33:13;8.90;99.90
16066;DHT22;8137;48.952;8.970;2023-05-14T01:35:40;8.80;99.90
16066;DHT22;8137;48.952;8.970;2023-05-14T01:38:09;8.80;99.90
16066;DHT22;8137;48.952;8.970;2023-05-14T01:40:36;8.70;99.90
16066;DHT22;8137;48.952;8.970;2023-05-14T01:43:02;8.60;99.90
16066;DHT22;8137;48.952;8.970;2023-05-14T01:45:29;8.60;99.90
16066;DHT22;8137;48.952;8.970;2023-05-14T01:47:55;8.60;99.90
16066;DHT22;8137;48.952;8.970;2023-05-14T01:50:21;8.50;99.90
16066;DHT22;8137;48.952;8.970;2023-05-14T01:52:47;8.50;99.90
16066;DHT22;8137;48.952;8.970;2023-05-14T01:55:13;8.40;99.90
16066;DHT22;8137;48.952;8.970;2023-05-14T01:57:38;8.40;99.90
16066;DHT22;8137;48.952;8.970;2023-05-14T02:00:05;8.40;99.90
16066;DHT22;8137;48.952;8.970;2023-05-14T02:02:30;8.30;99.90
16066;DHT22;8137;48.952;8.970;2023-05-14T02:04:56;8.30;99.90
16066;DHT22;8137;48.952;8.970;2023-05-14T02:07:21;8.20;99.90
16066;DHT22;8137;48.952;8.970;2023-05-14T02:09:47;8.20;99.90
16066;DHT22;8137;48.952;8.970;2023-05-14T02:12:13;8.20;99.90
16066;DHT22;8137;48.952;8.970;2023-05-14T02:14:38;8.10;99.90
16066;DHT22;8137;48.952;8.970;2023-05-14T02:17:04;8.10;99.90
16066;DHT22;8137;48.952;8.970;2023-05-14T02:19:30;8.10;99.90
16066;DHT22;8137;48.952;8.970;2023-05-14T02:21:55;8.00;99.90
16066;DHT22;8137;48.952;8.970;2023-05-14T02:24:21;8.00;99.90
16066;DHT22;8137;48.952;8.970;2023-05-14T02:26:46;8.00;99.90
16066;DHT22;8137;48.952;8.970;2023-05-14T02:29:12;7.90;99.90
16066;DHT22;8137;48.952;8.970;2023-05-14T02:31:38;7.90;99.90
16066;DHT22;8137;48.952;8.970;2023-05-14T02:34:04;7.90;99.90
16066;DHT22;8137;48.952;8.970;2023-05-14T02:36:33;7.90;99.90
16066;DHT22;8137;48.952;8.970;2023-05-14T02:38:59;7.90;99.90
16066;DHT22;8137;48.952;8.970;2023-05-14T02:41:25;7.90;99.90
16066;DHT22;8137;48.952;8.970;2023-05-14T02:43:52;7.90;99.90
16066;DHT22;8137;48.952;8.970;2023-05-14T02:46:18;7.90;99.90
16066;DHT22;8137;48.952;8.970;2023-05-14T02:48:43;7.90;99.90
16066;DHT22;8137;48.952;8.970;2023-05-14T02:51:09;7.80;99.90
16066;DHT22;8137;48.952;8.970;2023-05-14T02:53:35;7.80;99.90
16066;DHT22;8137;48.952;8.970;2023-05-14T02:56:01;7.80;99.90
16066;DHT22;8137;48.952;8.970;2023-05-14T02:58:26;7.80;99.90
16066;DHT22;8137;48.952;8.970;2023-05-14T03:00:52;7.80;99.90
16066;DHT22;8137;48.952;8.970;2023-05-14T03:03:18;7.80;99.90
16066;DHT22;8137;48.952;8.970;2023-05-14T03:05:44;7.80;99.90
16066;DHT22;8137;48.952;8.970;2023-05-14T03:08:09;7.80;99.90
16066;DHT22;8137;48.952;8.970;2023-05-14T03:10:35;7.80;99.90
16066;DHT22;8137;48.952;8.970;2023-05-14T03:13:01;7.80;99.90
16066;DHT22;8137;48.952;8.970;2023-05-14T03:15:27;7.80;99.90
16066;DHT22;8137;48.952;8.970;2023-05-14T03:17:52;7.70;99.90
16066;DHT22;8137;48.952;8.970;2023-05-14T03:20:18;7.70;99.90
16066;DHT22;8137;48.952;8.970;2023-05-14T03:22:44;7.60;99.90
16066;DHT22;8137;48.952;8.970;2023-05-14T03:25:09;7.70;99.90
16066;DHT22;8137;48.952;8.970;2023-05-14T03:27:35;7.70;99.90
16066;DHT22;8137;48.952;8.970;2023-05-14T03:30:01;7.80;99.90
16066;DHT22;8137;48.952;8.970;2023-05-14T03:32:26;7.90;99.90
16066;DHT22;8137;48.952;8.970;2023-05-14T03:34:52;7.90;99.90
16066;DHT22;8137;48.952;8.970;2023-05-14T03:37:18;8.00;99.90
16066;DHT22;8137;48.952;8.970;2023-05-14T03:39:43;8.10;99.90
16066;DHT22;8137;48.952;8.970;2023-05-14T03:42:09;8.10;99.90
16066;DHT22;8137;48.952;8.970;2023-05-14T03:44:34;8.10;99.90
16066;DHT22;8137;48.952;8.970;2023-05-14T03:47:00;8.00;99.90
16066;DHT22;8137;48.952;8.970;2023-05-14T03:49:26;8.00;99.90
16066;DHT22;8137;48.952;8.970;2023-05-14T03:51:51;8.10;99.90
16066;DHT22;8137;48.952;8.970;2023-05-14T03:54:17;8.10;99.90
16066;DHT22;8137;48.952;8.970;2023-05-14T03:56:42;8.10;99.90
16066;DHT22;8137;48.952;8.970;2023-05-14T03:59:08;8.20;99.90
16066;DHT22;8137;48.952;8.970;2023-05-14T04:01:33;8.20;99.90
16066;DHT22;8137;48.952;8.970;2023-05-14T04:03:59;8.20;99.90
16066;DHT22;8137;48.952;8.970;2023-05-14T04:06:24;8.30;99.90
16066;DHT22;8137;48.952;8.970;2023-05-14T04:08:50;8.30;99.90
16066;DHT22;8137;48.952;8.970;2023-05-14T04:11:16;8.40;99.90
16066;DHT22;8137;48.952;8.970;2023-05-14T04:13:41;8.50;99.90
16066;DHT22;8137;48.952;8.970;2023-05-14T04:16:07;8.50;99.90
16066;DHT22;8137;48.952;8.970;2023-05-14T04:18:32;8.50;99.90
16066;DHT22;8137;48.952;8.970;2023-05-14T04:21:01;8.60;99.90
16066;DHT22;8137;48.952;8.970;2023-05-14T04:23:27;8.70;99.90
16066;DHT22;8137;48.952;8.970;2023-05-14T04:25:53;8.80;99.90
16066;DHT22;8137;48.952;8.970;2023-05-14T04:28:18;8.80;99.90
16066;DHT22;8137;48.952;8.970;2023-05-14T04:30:44;8.90;99.90
16066;DHT22;8137;48.952;8.970;2023-05-14T04:33:10;8.90;99.90
16066;DHT22;8137;48.952;8.970;2023-05-14T04:35:35;9.00;99.90
16066;DHT22;8137;48.952;8.970;2023-05-14T04:38:01;9.10;99.90
16066;DHT22;8137;48.952;8.970;2023-05-14T04:40:27;9.20;99.90
16066;DHT22;8137;48.952;8.970;2023-05-14T04:42:52;9.30;99.90
16066;DHT22;8137;48.952;8.970;2023-05-14T04:45:18;9.40;99.90
16066;DHT22;8137;48.952;8.970;2023-05-14T04:47:45;9.50;99.90
16066;DHT22;8137;48.952;8.970;2023-05-14T04:50:11;9.60;99.90
16066;DHT22;8137;48.952;8.970;2023-05-14T04:52:37;9.60;99.90
16066;DHT22;8137;48.952;8.970;2023-05-14T04:55:02;9.70;99.90
16066;DHT22;8137;48.952;8.970;2023-05-14T04:57:28;9.80;99.90
16066;DHT22;8137;48.952;8.970;2023-05-14T04:59:54;9.90;99.90
16066;DHT22;8137;48.952;8.970;2023-05-14T05:02:19;9.90;99.90
16066;DHT22;8137;48.952;8.970;2023-05-14T05:04:45;10.00;99.90
16066;DHT22;8137;48.952;8.970;2023-05-14T05:07:11;10.00;99.90
16066;DHT22;8137;48.952;8.970;2023-05-14T05:09:37;10.10;99.90
16066;DHT22;8137;48.952;8.970;2023-05-14T05:12:03;10.20;99.90
16066;DHT22;8137;48.952;8.970;2023-05-14T05:14:29;10.30;99.90
16066;DHT22;8137;48.952;8.970;2023-05-14T05:16:54;10.30;99.90
16066;DHT22;8137;48.952;8.970;2023-05-14T05:19:20;10.40;99.90
16066;DHT22;8137;48.952;8.970;2023-05-14T05:21:46;10.50;99.90
16066;DHT22;8137;48.952;8.970;2023-05-14T05:24:11;10.60;99.90
16066;DHT22;8137;48.952;8.970;2023-05-14T05:26:37;10.70;99.90
16066;DHT22;8137;48.952;8.970;2023-05-14T05:29:03;10.80;99.90
16066;DHT22;8137;48.952;8.970;2023-05-14T05:31:30;10.90;99.90
16066;DHT22;8137;48.952;8.970;2023-05-14T05:33:57;11.00;99.90
16066;DHT22;8137;48.952;8.970;2023-05-14T05:36:23;11.00;99.90
16066;DHT22;8137;48.952;8.970;2023-05-14T05:38:48;11.10;99.90
16066;DHT22;8137;48.952;8.970;2023-05-14T05:41:14;11.30;99.90
16066;DHT22;8137;48.952;8.970;2023-05-14T05:43:39;11.40;99.90
16066;DHT22;8137;48.952;8.970;2023-05-14T05:46:06;11.50;99.90
16066;DHT22;8137;48.952;8.970;2023-05-14T05:48:31;11.70;99.90
16066;DHT22;8137;48.952;8.970;2023-05-14T05:50:57;11.80;99.90
16066;DHT22;8137;48.952;8.970;2023-05-14T05:53:23;11.90;99.90
16066;DHT22;8137;48.952;8.970;2023-05-14T05:55:48;12.10;99.90
16066;DHT22;8137;48.952;8.970;2023-05-14T05:58:18;12.20;99.90
16066;DHT22;8137;48.952;8.970;2023-05-14T06:00:45;12.30;99.90
16066;DHT22;8137;48.952;8.970;2023-05-14T06:03:12;12.40;99.90
16066;DHT22;8137;48.952;8.970;2023-05-14T06:05:37;12.50;99.90
16066;DHT22;8137;48.952;8.970;2023-05-14T06:08:03;12.50;99.90
16066;DHT22;8137;48.952;8.970;2023-05-14T06:10:29;12.60;99.90
16066;DHT22;8137;48.952;8.970;2023-05-14T06:12:54;12.70;99.90
16066;DHT22;8137;48.952;8.970;2023-05-14T06:15:20;12.80;99.90
16066;DHT22;8137;48.952;8.970;2023-05-14T06:17:46;13.00;99.90
16066;DHT22;8137;48.952;8.970;2023-05-14T06:20:11;13.30;99.90
16066;DHT22;8137;48.952;8.970;2023-05-14T06:22:37;13.60;99.90
16066;DHT22;8137;48.952;8.970;2023-05-14T06:25:03;14.00;99.90
16066;DHT22;8137;48.952;8.970;2023-05-14T06:27:29;14.10;99.90
16066;DHT22;8137;48.952;8.970;2023-05-14T06:29:54;14.10;99.90
16066;DHT22;8137;48.952;8.970;2023-05-14T06:32:20;14.20;99.90
16066;DHT22;8137;48.952;8.970;2023-05-14T06:34:45;14.30;99.90
16066;DHT22;8137;48.952;8.970;2023-05-14T06:37:11;14.30;99.90
16066;DHT22;8137;48.952;8.970;2023-05-14T06:39:37;14.40;99.90
16066;DHT22;8137;48.952;8.970;2023-05-14T06:42:04;14.70;99.90
16066;DHT22;8137;48.952;8.970;2023-05-14T06:44:30;15.00;99.90
16066;DHT22;8137;48.952;8.970;2023-05-14T06:46:55;15.10;99.90
16066;DHT22;8137;48.952;8.970;2023-05-14T06:49:21;15.40;99.90
16066;DHT22;8137;48.952;8.970;2023-05-14T06:51:47;15.50;99.90
16066;DHT22;8137;48.952;8.970;2023-05-14T06:54:13;15.70;99.90
16066;DHT22;8137;48.952;8.970;2023-05-14T06:56:38;15.80;99.90
16066;DHT22;8137;48.952;8.970;2023-05-14T06:59:04;15.90;99.90
16066;DHT22;8137;48.952;8.970;2023-05-14T07:01:30;15.90;99.90
16066;DHT22;8137;48.952;8.970;2023-05-14T07:03:55;15.70;99.90
16066;DHT22;8137;48.952;8.970;2023-05-14T07:06:21;15.50;99.90
16066;DHT22;8137;48.952;8.970;2023-05-14T07:08:47;15.20;99.90
16066;DHT22;8137;48.952;8.970;2023-05-14T07:11:13;15.00;99.90
16066;DHT22;8137;48.952;8.970;2023-05-14T07:13:40;14.90;99.90
16066;DHT22;8137;48.952;8.970;2023-05-14T07:16:06;14.80;99.90
16066;DHT22;8137;48.952;8.970;2023-05-14T07:18:34;14.60;99.90
16066;DHT22;8137;48.952;8.970;2023-05-14T07:21:00;14.40;99.90
16066;DHT22;8137;48.952;8.970;2023-05-14T07:23:26;14.40;99.90
16066;DHT22;8137;48.952;8.970;2023-05-14T07:25:54;14.50;99.90
16066;DHT22;8137;48.952;8.970;2023-05-14T07:28:20;14.70;99.90
16066;DHT22;8137;48.952;8.970;2023-05-14T07:30:45;15.00;99.90
16066;DHT22;8137;48.952;8.970;2023-05-14T07:33:11;15.20;99.90
16066;DHT22;8137;48.952;8.970;2023-05-14T07:35:36;15.60;99.90
16066;DHT22;8137;48.952;8.970;2023-05-14T07:38:03;15.90;99.90
16066;DHT22;8137;48.952;8.970;2023-05-14T07:40:30;16.10;99.90
16066;DHT22;8137;48.952;8.970;2023-05-14T07:42:55;16.20;99.90
16066;DHT22;8137;48.952;8.970;2023-05-14T07:45:21;16.30;99.90
16066;DHT22;8137;48.952;8.970;2023-05-14T07:47:46;16.50;99.90
16066;DHT22;8137;48.952;8.970;2023-05-14T07:50:16;16.70;99.90
16066;DHT22;8137;48.952;8.970;2023-05-14T07:52:42;16.80;99.90
16066;DHT22;8137;48.952;8.970;2023-05-14T07:55:08;16.90;99.90
16066;DHT22;8137;48.952;8.970;2023-05-14T07:57:34;16.90;99.90
16066;DHT22;8137;48.952;8.970;2023-05-14T07:59:59;16.90;99.90
16066;DHT22;8137;48.952;8.970;2023-05-14T08:02:25;16.90;99.90
16066;DHT22;8137;48.952;8.970;2023-05-14T08:04:51;17.00;99.90
16066;DHT22;8137;48.952;8.970;2023-05-14T08:07:17;17.00;99.90
16066;DHT22;8137;48.952;8.970;2023-05-14T08:09:42;17.20;99.90
16066;DHT22;8137;48.952;8.970;2023-05-14T08:12:08;17.30;99.90
16066;DHT22;8137;48.952;8.970;2023-05-14T08:14:33;17.30;99.90
16066;DHT22;8137;48.952;8.970;2023-05-14T08:16:59;17.20;99.90
16066;DHT22;8137;48.952;8.970;2023-05-14T08:19:25;17.10;99.90
16066;DHT22;8137;48.952;8.970;2023-05-14T08:21:51;17.10;99.90
16066;DHT22;8137;48.952;8.970;2023-05-14T08:24:18;17.00;99.90
16066;DHT22;8137;48.952;8.970;2023-05-14T08:26:43;17.20;99.90
16066;DHT22;8137;48.952;8.970;2023-05-14T08:29:09;17.70;99.90
16066;DHT22;8137;48.952;8.970;2023-05-14T08:31:34;18.40;99.90
16066;DHT22;8137;48.952;8.970;2023-05-14T08:34:00;19.00;99.90
16066;DHT22;8137;48.952;8.970;2023-05-14T08:36:26;19.00;99.90
16066;DHT22;8137;48.952;8.970;2023-05-14T08:38:51;19.50;99.90
16066;DHT22;8137;48.952;8.970;2023-05-14T08:41:17;19.70;99.90
16066;DHT22;8137;48.952;8.970;2023-05-14T08:46:13;19.80;99.90
16066;DHT22;8137;48.952;8.970;2023-05-14T08:48:41;19.90;99.90
16066;DHT22;8137;48.952;8.970;2023-05-14T08:51:07;19.80;99.90
16066;DHT22;8137;48.952;8.970;2023-05-14T08:53:33;20.10;99.90
16066;DHT22;8137;48.952;8.970;2023-05-14T08:56:00;20.20;99.90
16066;DHT22;8137;48.952;8.970;2023-05-14T08:58:27;20.60;99.90
16066;DHT22;8137;48.952;8.970;2023-05-14T09:00:54;20.70;99.90
16066;DHT22;8137;48.952;8.970;2023-05-14T09:03:20;21.10;99.90
16066;DHT22;8137;48.952;8.970;2023-05-14T09:05:48;21.40;99.90
16066;DHT22;8137;48.952;8.970;2023-05-14T09:08:15;21.50;99.90
16066;DHT22;8137;48.952;8.970;2023-05-14T09:10:41;21.40;99.90
16066;DHT22;8137;48.952;8.970;2023-05-14T09:13:07;21.30;99.90
16066;DHT22;8137;48.952;8.970;2023-05-14T09:15:36;21.10;99.90
16066;DHT22;8137;48.952;8.970;2023-05-14T09:18:04;20.90;99.90
16066;DHT22;8137;48.952;8.970;2023-05-14T09:20:30;21.00;99.90
16066;DHT22;8137;48.952;8.970;2023-05-14T09:22:57;21.20;99.90
16066;DHT22;8137;48.952;8.970;2023-05-14T09:25:30;21.40;99.90
16066;DHT22;8137;48.952;8.970;2023-05-14T09:27:56;21.30;99.90
16066;DHT22;8137;48.952;8.970;2023-05-14T09:30:23;21.30;99.90
16066;DHT22;8137;48.952;8.970;2023-05-14T09:32:52;21.60;99.90
16066;DHT22;8137;48.952;8.970;2023-05-14T09:35:20;21.90;99.90
16066;DHT22;8137;48.952;8.970;2023-05-14T09:37:50;21.70;99.90
16066;DHT22;8137;48.952;8.970;2023-05-14T09:40:19;21.40;99.90
16066;DHT22;8137;48.952;8.970;2023-05-14T09:42:45;21.50;99.90
16066;DHT22;8137;48.952;8.970;2023-05-14T09:45:12;21.50;99.90
16066;DHT22;8137;48.952;8.970;2023-05-14T09:47:38;21.60;99.90
16066;DHT22;8137;48.952;8.970;2023-05-14T09:50:05;21.50;99.90
16066;DHT22;8137;48.952;8.970;2023-05-14T09:52:31;21.90;99.90
16066;DHT22;8137;48.952;8.970;2023-05-14T09:54:56;21.90;99.90
16066;DHT22;8137;48.952;8.970;2023-05-14T09:57:22;21.80;99.90
16066;DHT22;8137;48.952;8.970;2023-05-14T09:59:48;21.60;99.90
16066;DHT22;8137;48.952;8.970;2023-05-14T10:02:26;21.50;99.90
16066;DHT22;8137;48.952;8.970;2023-05-14T10:04:56;21.30;99.90
16066;DHT22;8137;48.952;8.970;2023-05-14T10:07:28;21.40;99.90
16066;DHT22;8137;48.952;8.970;2023-05-14T10:10:01;21.40;99.90
16066;DHT22;8137;48.952;8.970;2023-05-14T10:12:31;21.50;99.90
16066;DHT22;8137;48.952;8.970;2023-05-14T10:15:02;21.20;99.90
16066;DHT22;8137;48.952;8.970;2023-05-14T10:17:31;21.10;99.90
16066;DHT22;8137;48.952;8.970;2023-05-14T10:19:59;21.00;99.90
16066;DHT22;8137;48.952;8.970;2023-05-14T10:22:30;21.30;99.90
16066;DHT22;8137;48.952;8.970;2023-05-14T10:24:58;21.60;99.90
16066;DHT22;8137;48.952;8.970;2023-05-14T10:27:24;21.70;99.90
16066;DHT22;8137;48.952;8.970;2023-05-14T10:29:54;21.80;99.90
16066;DHT22;8137;48.952;8.970;2023-05-14T10:32:22;22.10;99.90
16066;DHT22;8137;48.952;8.970;2023-05-14T10:34:49;22.70;99.90
16066;DHT22;8137;48.952;8.970;2023-05-14T10:37:26;23.10;99.90
16066;DHT22;8137;48.952;8.970;2023-05-14T10:40:02;23.30;99.90
16066;DHT22;8137;48.952;8.970;2023-05-14T10:42:35;23.60;99.90
16066;DHT22;8137;48.952;8.970;2023-05-14T10:45:06;23.90;99.90
16066;DHT22;8137;48.952;8.970;2023-05-14T10:47:41;23.50;99.90
16066;DHT22;8137;48.952;8.970;2023-05-14T10:50:09;23.30;99.90
16066;DHT22;8137;48.952;8.970;2023-05-14T10:52:36;23.70;99.90
16066;DHT22;8137;48.952;8.970;2023-05-14T10:55:03;23.80;99.90
16066;DHT22;8137;48.952;8.970;2023-05-14T10:57:34;24.10;99.90
16066;DHT22;8137;48.952;8.970;2023-05-14T11:00:01;23.80;99.90
16066;DHT22;8137;48.952;8.970;2023-05-14T11:02:31;24.00;99.90
16066;DHT22;8137;48.952;8.970;2023-05-14T11:05:01;23.80;99.90
16066;DHT22;8137;48.952;8.970;2023-05-14T11:07:36;24.00;99.90
16066;DHT22;8137;48.952;8.970;2023-05-14T11:10:10;23.60;99.90
16066;DHT22;8137;48.952;8.970;2023-05-14T11:12:38;23.50;99.90
16066;DHT22;8137;48.952;8.970;2023-05-14T11:15:06;23.60;99.90
16066;DHT22;8137;48.952;8.970;2023-05-14T11:17:34;24.00;99.90
16066;DHT22;8137;48.952;8.970;2023-05-14T11:20:00;23.70;99.90
16066;DHT22;8137;48.952;8.970;2023-05-14T11:22:26;23.40;99.90
16066;DHT22;8137;48.952;8.970;2023-05-14T11:24:52;24.00;99.90
16066;DHT22;8137;48.952;8.970;2023-05-14T11:27:18;24.00;99.90
16066;DHT22;8137;48.952;8.970;2023-05-14T11:29:46;23.90;99.90
16066;DHT22;8137;48.952;8.970;2023-05-14T11:32:12;23.50;99.00
16066;DHT22;8137;48.952;8.970;2023-05-14T11:34:38;23.10;99.90
16066;DHT22;8137;48.952;8.970;2023-05-14T11:37:07;23.30;99.20
16066;DHT22;8137;48.952;8.970;2023-05-14T11:39:34;23.30;99.90
16066;DHT22;8137;48.952;8.970;2023-05-14T11:42:11;23.00;99.90
16066;DHT22;8137;48.952;8.970;2023-05-14T11:44:39;22.80;99.90
16066;DHT22;8137;48.952;8.970;2023-05-14T11:47:05;22.50;99.90
16066;DHT22;8137;48.952;8.970;2023-05-14T11:49:31;22.10;99.80
16066;DHT22;8137;48.952;8.970;2023-05-14T11:51:58;21.80;99.90
16066;DHT22;8137;48.952;8.970;2023-05-14T11:54:27;21.40;99.90
16066;DHT22;8137;48.952;8.970;2023-05-14T11:56:54;20.70;99.90
16066;DHT22;8137;48.952;8.970;2023-05-14T11:59:24;20.30;99.90
16066;DHT22;8137;48.952;8.970;2023-05-14T12:01:50;19.80;99.90
16066;DHT22;8137;48.952;8.970;2023-05-14T12:04:17;19.50;99.90
16066;DHT22;8137;48.952;8.970;2023-05-14T12:06:50;19.50;99.90
16066;DHT22;8137;48.952;8.970;2023-05-14T12:09:20;19.40;99.90
16066;DHT22;8137;48.952;8.970;2023-05-14T12:11:47;19.30;99.90
16066;DHT22;8137;48.952;8.970;2023-05-14T12:16:43;19.30;99.90
16066;DHT22;8137;48.952;8.970;2023-05-14T12:19:09;19.10;99.90
16066;DHT22;8137;48.952;8.970;2023-05-14T12:21:38;19.20;99.90
16066;DHT22;8137;48.952;8.970;2023-05-14T12:24:11;19.10;99.90
16066;DHT22;8137;48.952;8.970;2023-05-14T12:26:37;19.10;99.90
16066;DHT22;8137;48.952;8.970;2023-05-14T12:29:04;19.20;99.90
16066;DHT22;8137;48.952;8.970;2023-05-14T12:31:35;19.10;99.90
16066;DHT22;8137;48.952;8.970;2023-05-14T12:34:01;19.20;99.90
16066;DHT22;8137;48.952;8.970;2023-05-14T12:36:28;19.40;99.90
16066;DHT22;8137;48.952;8.970;2023-05-14T12:39:00;19.60;99.90
16066;DHT22;8137;48.952;8.970;2023-05-14T12:41:31;19.60;99.90
16066;DHT22;8137;48.952;8.970;2023-05-14T12:43:57;19.50;99.90
16066;DHT22;8137;48.952;8.970;2023-05-14T12:46:26;19.30;99.90
16066;DHT22;8137;48.952;8.970;2023-05-14T12:48:52;19.40;99.90
16066;DHT22;8137;48.952;8.970;2023-05-14T12:51:18;19.50;99.90
16066;DHT22;8137;48.952;8.970;2023-05-14T12:53:43;20.00;99.90
16066;DHT22;8137;48.952;8.970;2023-05-14T12:56:10;20.40;99.90
16066;DHT22;8137;48.952;8.970;2023-05-14T12:58:36;20.60;99.90
16066;DHT22;8137;48.952;8.970;2023-05-14T13:01:01;20.50;99.90
16066;DHT22;8137;48.952;8.970;2023-05-14T13:03:27;20.60;99.90
16066;DHT22;8137;48.952;8.970;2023-05-14T13:05:53;21.00;99.90
16066;DHT22;8137;48.952;8.970;2023-05-14T13:08:20;21.40;99.90
16066;DHT22;8137;48.952;8.970;2023-05-14T13:10:52;21.50;99.90
16066;DHT22;8137;48.952;8.970;2023-05-14T13:13:17;21.60;99.90
16066;DHT22;8137;48.952;8.970;2023-05-14T13:15:43;21.10;99.40
16066;DHT22;8137;48.952;8.970;2023-05-14T13:18:11;20.90;99.90
16066;DHT22;8137;48.952;8.970;2023-05-14T13:20:37;20.70;99.90
16066;DHT22;8137;48.952;8.970;2023-05-14T13:23:03;20.80;99.90
16066;DHT22;8137;48.952;8.970;2023-05-14T13:25:28;20.80;99.90
16066;DHT22;8137;48.952;8.970;2023-05-14T13:27:54;20.80;99.90
16066;DHT22;8137;48.952;8.970;2023-05-14T13:30:20;20.60;99.90
16066;DHT22;8137;48.952;8.970;2023-05-14T13:32:46;20.30;99.90
16066;DHT22;8137;48.952;8.970;2023-05-14T13:35:12;20.00;99.90
16066;DHT22;8137;48.952;8.970;2023-05-14T13:37:38;19.90;99.90
16066;DHT22;8137;48.952;8.970;2023-05-14T13:40:04;19.90;99.90
16066;DHT22;8137;48.952;8.970;2023-05-14T13:42:32;19.90;99.90
16066;DHT22;8137;48.952;8.970;2023-05-14T13:44:58;20.00;99.90
16066;DHT22;8137;48.952;8.970;2023-05-14T13:47:24;20.00;99.90
16066;DHT22;8137;48.952;8.970;2023-05-14T13:49:53;19.80;99.90
16066;DHT22;8137;48.952;8.970;2023-05-14T13:52:26;19.80;99.90
16066;DHT22;8137;48.952;8.970;2023-05-14T13:54:51;19.70;99.90
16066;DHT22;8137;48.952;8.970;2023-05-14T13:57:18;19.60;99.90
16066;DHT22;8137;48.952;8.970;2023-05-14T13:59:45;19.50;99.90
16066;DHT22;8137;48.952;8.970;2023-05-14T14:02:10;19.60;99.90
16066;DHT22;8137;48.952;8.970;2023-05-14T14:04:36;20.00;99.90
16066;DHT22;8137;48.952;8.970;2023-05-14T14:07:02;20.40;99.90
16066;DHT22;8137;48.952;8.970;2023-05-14T14:09:27;20.50;99.90
16066;DHT22;8137;48.952;8.970;2023-05-14T14:11:53;20.70;99.90
16066;DHT22;8137;48.952;8.970;2023-05-14T14:14:19;20.90;99.90
16066;DHT22;8137;48.952;8.970;2023-05-14T14:16:44;21.10;99.90
16066;DHT22;8137;48.952;8.970;2023-05-14T14:19:10;21.50;99.90
16066;DHT22;8137;48.952;8.970;2023-05-14T14:21:36;21.20;99.90
16066;DHT22;8137;48.952;8.970;2023-05-14T14:24:04;21.00;99.90
16066;DHT22;8137;48.952;8.970;2023-05-14T14:26:30;21.00;99.90
16066;DHT22;8137;48.952;8.970;2023-05-14T14:28:56;21.00;99.90
16066;DHT22;8137;48.952;8.970;2023-05-14T14:31:21;20.90;99.90
16066;DHT22;8137;48.952;8.970;2023-05-14T14:33:47;20.40;99.00
16066;DHT22;8137;48.952;8.970;2023-05-14T14:36:12;19.90;99.90
16066;DHT22;8137;48.952;8.970;2023-05-14T14:38:38;19.70;99.90
16066;DHT22;8137;48.952;8.970;2023-05-14T14:41:04;19.60;99.90
16066;DHT22;8137;48.952;8.970;2023-05-14T14:43:33;19.70;99.90
16066;DHT22;8137;48.952;8.970;2023-05-14T14:45:58;19.90;99.90
16066;DHT22;8137;48.952;8.970;2023-05-14T14:48:33;20.00;99.90
16066;DHT22;8137;48.952;8.970;2023-05-14T14:51:02;20.40;99.90
16066;DHT22;8137;48.952;8.970;2023-05-14T14:53:28;20.60;99.90
16066;DHT22;8137;48.952;8.970;2023-05-14T14:55:54;20.40;99.90
16066;DHT22;8137;48.952;8.970;2023-05-14T14:58:20;20.20;99.90
16066;DHT22;8137;48.952;8.970;2023-05-14T15:00:47;20.30;99.90
16066;DHT22;8137;48.952;8.970;2023-05-14T15:03:13;20.60;99.90
16066;DHT22;8137;48.952;8.970;2023-05-14T15:05:39;21.00;99.90
16066;DHT22;8137;48.952;8.970;2023-05-14T15:08:05;21.20;99.80
16066;DHT22;8137;48.952;8.970;2023-05-14T15:10:31;21.20;99.30
16066;DHT22;8137;48.952;8.970;2023-05-14T15:12:57;20.70;98.60
16066;DHT22;8137;48.952;8.970;2023-05-14T15:15:24;20.10;99.60
16066;DHT22;8137;48.952;8.970;2023-05-14T15:17:49;19.60;99.90
16066;DHT22;8137;48.952;8.970;2023-05-14T15:20:15;19.30;99.90
16066;DHT22;8137;48.952;8.970;2023-05-14T15:22:41;19.30;99.90
16066;DHT22;8137;48.952;8.970;2023-05-14T15:25:07;19.60;99.90
16066;DHT22;8137;48.952;8.970;2023-05-14T15:27:33;20.00;99.90
16066;DHT22;8137;48.952;8.970;2023-05-14T15:29:59;20.20;99.90
16066;DHT22;8137;48.952;8.970;2023-05-14T15:32:24;20.40;99.90
16066;DHT22;8137;48.952;8.970;2023-05-14T15:34:52;20.50;99.90
16066;DHT22;8137;48.952;8.970;2023-05-14T15:37:17;20.10;99.90
16066;DHT22;8137;48.952;8.970;2023-05-14T15:39:43;19.90;99.90
16066;DHT22;8137;48.952;8.970;2023-05-14T15:42:09;19.50;99.00
16066;DHT22;8137;48.952;8.970;2023-05-14T15:44:35;19.40;99.70
16066;DHT22;8137;48.952;8.970;2023-05-14T15:47:01;19.50;99.90
16066;DHT22;8137;48.952;8.970;2023-05-14T15:49:26;19.70;99.90
16066;DHT22;8137;48.952;8.970;2023-05-14T15:51:52;20.00;99.90
16066;DHT22;8137;48.952;8.970;2023-05-14T15:54:18;20.20;99.90
16066;DHT22;8137;48.952;8.970;2023-05-14T15:56:44;20.20;99.90